Time;durP1;ratioP1;P1;durP2;ratioP2;P2;SDS_P1;SDS_P2;PMS_P1;PMS_P2;Temp;Humidity;BMP_temperature;BMP_pressure;BME280_temperature;BME280_humidity;BME280_pressure;Samples;Min_cycle;Max_cycle;Signal;HPM_P1;HPM_P2
2022/05/06 00:02:04;;;;;;;29.90;17.58;;;;;;;12.29;69.53;102406.28;5064677;28;20021;-78
2022/05/06 00:04:29;;;;;;;30.45;18.38;;;;;;;12.20;69.50;102407.19;5065773;28;20017;-78
2022/05/06 00:06:55;;;;;;;30.83;18.70;;;;;;;12.12;69.82;102398.59;5062508;28;20035;-78
2022/05/06 00:09:21;;;;;;;29.67;17.95;;;;;;;12.04;71.14;102408.19;5061688;28;20539;-78
2022/05/06 00:11:46;;;;;;;30.90;18.17;;;;;;;11.98;71.29;102407.34;5061658;28;20052;-78
2022/05/06 00:14:12;;;;;;;31.48;17.98;;;;;;;11.96;71.79;102397.78;5061543;28;20021;-78
2022/05/06 00:16:37;;;;;;;34.65;18.70;;;;;;;11.98;71.80;102411.69;5061850;28;20377;-78
2022/05/06 00:19:02;;;;;;;32.90;18.17;;;;;;;12.02;71.23;102409.94;5063997;28;20027;-78
2022/05/06 00:21:27;;;;;;;30.50;17.83;;;;;;;12.02;70.24;102410.81;5071423;28;20029;-78
2022/05/06 00:23:53;;;;;;;27.67;16.50;;;;;;;12.03;69.01;102407.34;5074460;28;20028;-78
2022/05/06 00:26:18;;;;;;;30.42;17.83;;;;;;;12.00;70.10;102402.13;5065177;28;20028;-78
2022/05/06 00:28:44;;;;;;;29.27;18.20;;;;;;;12.01;70.29;102408.19;5060541;28;20111;-78
2022/05/06 00:31:09;;;;;;;29.05;17.67;;;;;;;11.97;70.97;102408.19;5057226;28;20032;-78
2022/05/06 00:33:34;;;;;;;31.38;18.10;;;;;;;11.97;71.75;102407.34;5062091;28;20085;-78
2022/05/06 00:36:02;;;;;;;30.67;18.10;;;;;;;11.93;71.72;102414.31;5072797;28;20029;-78
2022/05/06 00:38:29;;;;;;;29.58;17.95;;;;;;;11.91;72.11;102412.56;5082742;28;20024;-78
2022/05/06 00:40:54;;;;;;;31.60;18.52;;;;;;;11.87;72.15;102414.34;5069766;28;20028;-78
2022/05/06 00:43:21;;;;;;;29.42;17.70;;;;;;;11.86;72.20;102404.78;5085451;28;20108;-78
2022/05/06 00:45:54;;;;;;;30.23;17.35;;;;;;;11.84;71.81;102410.03;5065628;28;20024;-78
2022/05/06 00:48:28;;;;;;;31.35;18.02;;;;;;;11.80;71.95;102403.09;5068743;28;20055;-78
2022/05/06 00:50:57;;;;;;;28.67;17.55;;;;;;;11.76;72.44;102410.94;5067968;28;20035;-78
2022/05/06 00:53:23;;;;;;;30.40;18.35;;;;;;;11.73;72.51;102405.75;5069031;28;20032;-78
2022/05/06 00:55:49;;;;;;;30.02;17.52;;;;;;;11.68;71.95;102400.56;5064978;28;20035;-78
2022/05/06 00:58:15;;;;;;;32.08;17.23;;;;;;;11.67;72.64;102402.28;5065173;28;20032;-78
2022/05/06 01:00:40;;;;;;;30.63;17.73;;;;;;;11.64;72.59;102404.91;5063741;28;20024;-78
2022/05/06 01:03:06;;;;;;;34.13;18.20;;;;;;;11.58;73.29;102402.34;5071522;28;20089;-78
2022/05/06 01:05:31;;;;;;;33.47;18.77;;;;;;;11.54;72.99;102411.03;5066284;28;20062;-78
2022/05/06 01:07:58;;;;;;;32.35;18.02;;;;;;;11.48;73.45;102405.84;5067616;28;20119;-78
2022/05/06 01:10:23;;;;;;;29.58;17.45;;;;;;;11.44;73.61;102404.16;5065659;28;20448;-78
2022/05/06 01:12:48;;;;;;;30.08;17.60;;;;;;;11.38;73.16;102407.63;5068258;28;20032;-78
2022/05/06 01:15:21;;;;;;;30.08;17.75;;;;;;;11.36;73.33;102412.84;5067942;28;20060;-78
2022/05/06 01:17:48;;;;;;;35.35;18.65;;;;;;;11.33;73.66;102410.25;5068040;28;20476;-78
2022/05/06 01:20:17;;;;;;;31.63;17.88;;;;;;;11.29;73.38;102405.91;5063259;28;20024;-78
2022/05/06 01:22:51;;;;;;;32.03;17.77;;;;;;;11.28;73.18;102404.19;5068656;28;20509;-78
2022/05/06 01:25:16;;;;;;;33.92;18.58;;;;;;;11.29;74.18;102405.91;5075087;28;20104;-78
2022/05/06 01:27:46;;;;;;;29.55;17.92;;;;;;;11.29;73.97;102405.91;5063759;28;20111;-78
2022/05/06 01:30:23;;;;;;;32.58;18.70;;;;;;;11.28;73.76;102409.38;5062094;28;20032;-78
2022/05/06 01:32:50;;;;;;;33.33;19.48;;;;;;;11.25;74.22;102412.03;5064685;28;20035;-78
2022/05/06 01:35:16;;;;;;;31.92;18.88;;;;;;;11.20;74.51;102413.78;5068459;28;20488;-78
2022/05/06 01:37:44;;;;;;;32.90;19.17;;;;;;;11.15;74.53;102418.13;5063141;28;20551;-78
2022/05/06 01:40:14;;;;;;;30.83;18.88;;;;;;;11.16;74.64;102414.66;5069725;28;20036;-78
2022/05/06 01:42:41;;;;;;;31.83;18.83;;;;;;;11.16;74.23;102406.84;5062354;28;20046;-78
2022/05/06 01:45:10;;;;;;;29.50;18.42;;;;;;;11.15;74.42;102407.69;5069015;28;20032;-78
2022/05/06 01:47:38;;;;;;;30.52;18.90;;;;;;;11.10;74.24;102415.53;5065584;28;20047;-78
2022/05/06 01:50:05;;;;;;;30.27;19.17;;;;;;;11.03;74.64;102416.41;5058858;28;20044;-78
2022/05/06 01:52:31;;;;;;;29.48;18.88;;;;;;;10.98;74.06;102416.44;5063924;28;20029;-78
2022/05/06 01:54:56;;;;;;;30.92;18.25;;;;;;;10.95;74.62;102416.44;5066767;28;21942;-78
2022/05/06 01:57:21;;;;;;;32.80;19.63;;;;;;;10.89;74.92;102417.31;5065036;28;20087;-78
2022/05/06 01:59:47;;;;;;;31.17;19.38;;;;;;;10.85;74.59;102417.31;5061416;28;20028;-78
2022/05/06 02:02:12;;;;;;;30.90;20.13;;;;;;;10.82;74.71;102414.72;5068766;28;20042;-77
2022/05/06 02:07:21;;;;;;;31.75;19.83;;;;;;;10.68;74.06;102420.81;5063895;28;20046;-78
2022/05/06 02:09:47;;;;;;;34.60;19.77;;;;;;;10.62;74.86;102423.41;5063430;28;20390;-78
2022/05/06 02:12:12;;;;;;;33.08;20.67;;;;;;;10.60;75.32;102415.63;5063436;28;20029;-78
2022/05/06 02:14:38;;;;;;;34.03;20.13;;;;;;;10.63;75.30;102419.94;5062254;28;20064;-78
2022/05/06 02:17:03;;;;;;;37.25;21.65;;;;;;;10.66;75.35;102427.75;5066254;28;20024;-77
2022/05/06 02:19:29;;;;;;;40.25;20.90;;;;;;;10.68;75.39;102415.59;5066211;28;20459;-78
2022/05/06 02:21:54;;;;;;;40.33;21.85;;;;;;;10.69;75.47;102424.25;5062454;28;20143;-78
2022/05/06 02:24:19;;;;;;;34.65;21.42;;;;;;;10.68;75.70;102407.78;5063581;28;20058;-78
2022/05/06 02:26:45;;;;;;;35.95;21.05;;;;;;;10.70;75.46;102408.66;5064568;28;20035;-78
2022/05/06 02:29:10;;;;;;;34.45;20.17;;;;;;;10.69;75.50;102414.75;5059424;28;20028;-78
2022/05/06 02:34:36;;;;;;;43.10;19.92;;;;;;;10.67;75.44;102426.03;5025017;28;20040;-78
2022/05/06 02:37:01;;;;;;;58.80;19.77;;;;;;;10.62;75.46;102423.41;5054273;28;20127;-78
2022/05/06 02:39:27;;;;;;;44.15;20.10;;;;;;;10.59;75.85;102419.09;5062888;28;20542;-78
2022/05/06 02:41:52;;;;;;;43.65;19.17;;;;;;;10.54;75.94;102418.22;5062393;28;20036;-78
2022/05/06 02:44:18;;;;;;;33.17;19.95;;;;;;;10.53;75.85;102418.22;5060837;28;20028;-78
2022/05/06 02:46:43;;;;;;;34.13;18.42;;;;;;;10.50;76.15;102424.31;5062680;28;20115;-78
2022/05/06 02:49:08;;;;;;;34.03;18.83;;;;;;;10.51;75.95;102419.94;5061035;28;20500;-78
2022/05/06 02:51:34;;;;;;;38.25;18.48;;;;;;;10.50;76.11;102423.41;5061989;28;20460;-78
2022/05/06 02:53:59;;;;;;;26.77;17.77;;;;;;;10.48;76.00;102424.28;5061108;28;20486;-78
2022/05/06 02:56:24;;;;;;;26.27;17.58;;;;;;;10.45;76.16;102421.66;5059293;28;20033;-78
2022/05/06 02:58:50;;;;;;;31.65;17.00;;;;;;;10.43;76.12;102426.00;5063615;28;21593;-78
2022/05/06 03:01:16;;;;;;;30.10;17.27;;;;;;;10.40;76.29;102428.63;5065595;28;20025;-78
2022/05/06 03:03:41;;;;;;;34.63;16.80;;;;;;;10.38;76.29;102425.16;5062381;28;20083;-78
2022/05/06 03:06:06;;;;;;;28.88;16.92;;;;;;;10.38;76.54;102422.56;5062422;28;20024;-78
2022/05/06 03:08:32;;;;;;;25.40;16.48;;;;;;;10.40;76.32;102423.44;5062998;28;20024;-78
2022/05/06 03:10:59;;;;;;;43.60;15.68;;;;;;;10.34;76.22;102425.97;5063709;28;20071;-78
2022/05/06 03:13:25;;;;;;;37.65;15.32;;;;;;;10.28;76.11;102421.66;5063603;28;20025;-78
2022/05/06 03:15:50;;;;;;;33.28;14.73;;;;;;;10.23;76.49;102425.97;5060879;28;20137;-78
2022/05/06 03:18:15;;;;;;;26.20;14.05;;;;;;;10.22;76.60;102418.19;5065564;28;20025;-78
2022/05/06 03:20:43;;;;;;;24.75;14.48;;;;;;;10.22;76.54;102420.78;5058366;28;20048;-78
2022/05/06 03:23:08;;;;;;;41.75;14.60;;;;;;;10.20;76.51;102419.91;5057201;28;20119;-78
2022/05/06 03:25:33;;;;;;;25.20;13.98;;;;;;;10.17;76.86;102416.44;5060474;28;20033;-78
2022/05/06 03:27:59;;;;;;;44.72;14.35;;;;;;;10.14;77.01;102421.63;5061310;28;20046;-78
2022/05/06 03:30:28;;;;;;;34.28;14.75;;;;;;;10.15;77.48;102423.34;5060534;28;20027;-78
2022/05/06 03:32:56;;;;;;;32.95;15.68;;;;;;;10.15;77.59;102425.97;5069313;28;20051;-78
2022/05/06 03:35:22;;;;;;;31.45;15.82;;;;;;;10.14;77.62;102421.63;5064124;28;20039;-77
2022/05/06 03:37:48;;;;;;;27.27;16.15;;;;;;;10.16;77.73;102414.69;5062775;28;20024;-78
2022/05/06 03:40:14;;;;;;;65.95;15.88;;;;;;;10.19;77.92;102419.03;5060315;28;20101;-77
2022/05/06 03:42:40;;;;;;;42.78;15.82;;;;;;;10.17;77.90;102419.03;5061205;28;20394;-78
2022/05/06 03:45:07;;;;;;;34.25;15.18;;;;;;;10.20;77.80;102420.75;5058246;28;20031;-78
2022/05/06 03:47:33;;;;;;;40.20;14.38;;;;;;;10.18;77.95;102418.16;5062623;28;20032;-78
2022/05/06 03:52:41;;;;;;;47.67;14.43;;;;;;;10.13;77.89;102427.69;5060063;28;20680;-78
2022/05/06 03:55:07;;;;;;;28.17;13.93;;;;;;;10.13;78.27;102419.88;5060007;28;20488;-78
2022/05/06 03:57:33;;;;;;;41.70;14.50;;;;;;;10.14;78.31;102426.81;5071869;28;20086;-77
2022/05/06 03:59:58;;;;;;;31.50;14.52;;;;;;;10.15;78.28;102428.56;5067577;28;20819;-77
2022/05/06 04:02:23;;;;;;;69.38;15.85;;;;;;;10.16;78.18;102430.28;5064865;28;20029;-77
2022/05/06 04:04:49;;;;;;;42.30;14.65;;;;;;;10.12;78.17;102425.94;5067592;28;20024;-78
2022/05/06 04:07:14;;;;;;;26.85;14.43;;;;;;;10.08;78.33;102434.59;5061890;28;20029;-77
2022/05/06 04:09:41;;;;;;;24.48;14.80;;;;;;;10.05;78.67;102426.81;5056559;28;20049;-78
2022/05/06 04:12:07;;;;;;;34.10;14.18;;;;;;;10.05;78.86;102437.22;5063785;28;20039;-78
2022/05/06 04:14:32;;;;;;;27.23;14.32;;;;;;;10.05;78.85;102431.13;5062750;28;20029;-78
2022/05/06 04:16:57;;;;;;;27.33;14.57;;;;;;;10.07;79.01;102430.28;5062445;28;20388;-78
2022/05/06 04:19:22;;;;;;;65.72;13.77;;;;;;;10.09;78.42;102430.28;5064881;28;20036;-78
2022/05/06 04:24:31;;;;;;;40.03;13.98;;;;;;;10.09;78.91;102431.13;5062742;28;20043;-78
2022/05/06 04:26:56;;;;;;;31.85;13.73;;;;;;;10.09;78.79;102438.94;5063263;28;20036;-78
2022/05/06 04:29:22;;;;;;;27.30;13.63;;;;;;;10.10;79.01;102440.69;5065118;28;20040;-77
2022/05/06 04:31:47;;;;;;;29.88;13.65;;;;;;;10.11;79.05;102442.41;5065111;28;20505;-78
2022/05/06 04:34:12;;;;;;;25.48;13.85;;;;;;;10.15;78.76;102444.16;5063010;28;20040;-78
2022/05/06 04:36:39;;;;;;;32.95;12.90;;;;;;;10.18;78.96;102443.28;5062910;28;20037;-78
2022/05/06 04:39:05;;;;;;;26.92;12.98;;;;;;;10.17;78.82;102442.44;5064748;28;20153;-77
2022/05/06 04:41:30;;;;;;;29.83;13.77;;;;;;;10.20;78.81;102449.38;5065756;28;20100;-78
2022/05/06 04:43:56;;;;;;;24.10;13.07;;;;;;;10.23;78.59;102453.72;5070806;28;20103;-78
2022/05/06 04:46:21;;;;;;;24.70;13.77;;;;;;;10.23;79.15;102457.19;5062425;28;20032;-77
2022/05/06 04:48:46;;;;;;;27.00;13.52;;;;;;;10.24;78.27;102451.13;5064784;28;20471;-78
2022/05/06 04:51:11;;;;;;;37.50;13.48;;;;;;;10.21;78.62;102458.06;5063138;28;20060;-78
2022/05/06 04:53:37;;;;;;;25.52;13.30;;;;;;;10.21;78.90;102455.44;5056458;28;20059;-78
2022/05/06 04:56:02;;;;;;;26.20;13.23;;;;;;;10.21;78.90;102458.06;5064123;28;20718;-78
2022/05/06 04:58:29;;;;;;;48.33;13.32;;;;;;;10.19;79.18;102460.63;5063001;28;20420;-78
2022/05/06 05:00:54;;;;;;;25.65;13.75;;;;;;;10.23;79.22;102466.72;5057399;28;20024;-78
2022/05/06 05:03:20;;;;;;;36.95;14.00;;;;;;;10.26;79.37;102462.41;5059056;28;20388;-78
2022/05/06 05:05:46;;;;;;;28.20;13.93;;;;;;;10.32;79.66;102466.72;5055977;28;20108;-78
2022/05/06 05:08:11;;;;;;;25.98;13.77;;;;;;;10.37;79.45;102475.41;5058849;28;20767;-78
2022/05/06 05:10:36;;;;;;;29.30;13.38;;;;;;;10.40;79.17;102469.38;5055732;28;20393;-78
2022/05/06 05:13:02;;;;;;;36.80;14.52;;;;;;;10.43;79.33;102475.44;5057526;28;20032;-78
2022/05/06 05:15:27;;;;;;;24.73;14.35;;;;;;;10.45;79.08;102476.31;5058006;28;20020;-77
2022/05/06 05:17:52;;;;;;;41.50;14.52;;;;;;;10.47;79.13;102482.41;5061223;28;20387;-78
2022/05/06 05:20:18;;;;;;;27.10;13.82;;;;;;;10.47;79.44;102479.78;5064246;28;20098;-77
2022/05/06 05:22:43;;;;;;;39.28;15.02;;;;;;;10.51;79.51;102485.00;5067952;28;20028;-78
2022/05/06 05:25:10;;;;;;;35.60;14.20;;;;;;;10.54;79.62;102479.81;5067176;28;20063;-78
2022/05/06 05:27:39;;;;;;;36.67;14.35;;;;;;;10.57;79.42;102485.03;5061516;28;20033;-78
2022/05/06 05:30:06;;;;;;;55.35;14.27;;;;;;;10.52;78.68;102484.13;5064953;28;20033;-78
2022/05/06 05:32:32;;;;;;;26.20;13.68;;;;;;;10.47;79.20;102482.41;5065820;28;20499;-78
2022/05/06 05:34:58;;;;;;;27.38;13.90;;;;;;;10.44;79.15;102484.97;5062915;28;20064;-78
2022/05/06 05:37:24;;;;;;;27.67;14.15;;;;;;;10.45;79.41;102488.47;5065050;28;20039;-78
2022/05/06 05:39:49;;;;;;;39.05;15.23;;;;;;;10.45;79.52;102488.47;5066465;28;20029;-78
2022/05/06 05:42:21;;;;;;;29.92;15.00;;;;;;;10.45;79.59;102494.53;5067554;28;20021;-78
2022/05/06 05:50:51;;;;;;;26.05;13.80;;;;;;;10.50;79.91;102478.94;4985529;28;20046;-78
2022/05/06 05:53:17;;;;;;;29.40;13.70;;;;;;;10.54;80.36;102487.63;5040305;28;20451;-78
2022/05/06 05:55:42;;;;;;;31.33;14.93;;;;;;;10.59;80.37;102491.09;5065530;28;20031;-78
2022/05/06 05:58:07;;;;;;;28.13;14.88;;;;;;;10.61;80.02;102485.03;5067431;28;20056;-78
2022/05/06 06:00:32;;;;;;;42.58;14.95;;;;;;;10.64;80.06;102489.34;5066601;28;20127;-77
2022/05/06 06:02:59;;;;;;;36.55;16.63;;;;;;;10.68;80.20;102483.28;5067755;28;20039;-78
2022/05/06 06:05:24;;;;;;;38.13;16.25;;;;;;;10.72;80.06;102490.22;5069563;28;20028;-78
2022/05/06 06:07:49;;;;;;;34.88;16.13;;;;;;;10.74;80.32;102485.91;5068181;28;20086;-78
2022/05/06 06:10:15;;;;;;;48.72;16.63;;;;;;;10.78;79.80;102486.75;5070359;28;20043;-78
2022/05/06 06:12:40;;;;;;;32.70;15.35;;;;;;;10.77;79.30;102485.03;5062134;28;20121;-78
2022/05/06 06:15:06;;;;;;;39.95;16.73;;;;;;;10.74;79.44;102480.69;5064060;28;20029;-78
2022/05/06 06:17:32;;;;;;;41.25;16.13;;;;;;;10.74;79.71;102485.91;5063715;28;20029;-78
2022/05/06 06:19:57;;;;;;;32.30;15.15;;;;;;;10.79;79.88;102478.09;5064932;28;20024;-78
2022/05/06 06:22:22;;;;;;;27.30;13.63;;;;;;;10.79;78.75;102491.09;5065610;28;20585;-78
2022/05/06 06:24:48;;;;;;;27.33;14.70;;;;;;;10.76;79.11;102478.06;5063152;28;20033;-78
2022/05/06 06:27:14;;;;;;;26.02;13.55;;;;;;;10.80;79.16;102477.22;5065071;28;20024;-78
2022/05/06 06:29:40;;;;;;;34.78;13.23;;;;;;;10.84;79.82;102485.88;5066094;28;20508;-78
2022/05/06 06:32:05;;;;;;;26.17;14.25;;;;;;;10.92;80.28;102484.16;5064509;28;20051;-78
2022/05/06 06:34:31;;;;;;;38.78;14.48;;;;;;;11.00;79.72;102492.81;5065609;28;20081;-78
2022/05/06 06:36:56;;;;;;;24.92;12.82;;;;;;;11.05;79.40;102490.19;5062453;28;20032;-78
2022/05/06 06:39:21;;;;;;;31.35;13.13;;;;;;;11.11;79.32;102489.31;5064436;28;20749;-78
2022/05/06 06:41:46;;;;;;;25.60;12.23;;;;;;;11.15;79.55;102494.53;5066758;28;20028;-78
2022/05/06 06:44:12;;;;;;;25.17;12.50;;;;;;;11.18;78.51;102488.44;5065785;28;20064;-79
2022/05/06 06:46:37;;;;;;;25.38;11.48;;;;;;;11.20;78.49;102481.50;5062393;28;20032;-79
2022/05/06 06:49:02;;;;;;;26.40;12.10;;;;;;;11.21;78.25;102478.88;5065292;28;20035;-79
2022/05/06 06:51:28;;;;;;;21.25;11.25;;;;;;;11.25;78.42;102484.97;5064982;28;20357;-79
2022/05/06 06:53:53;;;;;;;27.50;12.13;;;;;;;11.27;78.12;102488.44;5063461;28;20024;-79
2022/05/06 06:56:20;;;;;;;25.27;11.38;;;;;;;11.28;78.12;102487.56;5065546;28;20108;-79
2022/05/06 06:58:45;;;;;;;20.25;11.25;;;;;;;11.31;77.60;102489.31;5064992;28;20353;-78
2022/05/06 07:01:11;;;;;;;24.35;11.13;;;;;;;11.36;77.34;102490.13;5063318;28;20077;-79
2022/05/06 07:03:36;;;;;;;20.60;11.48;;;;;;;11.38;77.58;102502.31;5065746;28;20033;-78
2022/05/06 07:14:14;;;;;;;21.23;11.45;;;;;;;11.54;76.66;102521.38;5065279;28;20035;-79
2022/05/06 07:16:39;;;;;;;28.05;12.07;;;;;;;11.52;76.23;102525.75;5064541;28;20024;-79
2022/05/06 07:19:05;;;;;;;20.33;11.30;;;;;;;11.47;76.83;102524.00;5064754;28;20078;-79
2022/05/06 07:21:30;;;;;;;18.05;11.40;;;;;;;11.46;76.69;102524.88;5063484;28;20103;-78
2022/05/06 07:23:55;;;;;;;18.75;11.30;;;;;;;11.50;76.63;102524.88;5065961;28;20033;-77
2022/05/06 07:26:21;;;;;;;19.70;11.20;;;;;;;11.58;76.80;102524.84;5065496;28;20028;-78
2022/05/06 07:28:46;;;;;;;19.40;10.85;;;;;;;11.62;76.87;102531.78;5064046;28;20059;-79
2022/05/06 07:31:11;;;;;;;20.40;11.50;;;;;;;11.68;76.75;102533.53;5064383;28;20038;-78
2022/05/06 07:33:37;;;;;;;20.67;11.80;;;;;;;11.71;76.53;102538.69;5064604;28;20336;-79
2022/05/06 07:36:02;;;;;;;18.73;11.00;;;;;;;11.76;75.82;102546.53;5065234;28;20072;-79
2022/05/06 07:38:27;;;;;;;19.75;11.63;;;;;;;11.74;75.84;102546.50;5061619;28;20036;-79
2022/05/06 07:40:53;;;;;;;20.52;11.65;;;;;;;11.76;76.07;102547.38;5057586;28;20029;-79
2022/05/06 07:43:18;;;;;;;21.63;12.48;;;;;;;11.79;75.68;102557.81;5047457;28;20040;-78
2022/05/06 07:45:43;;;;;;;25.55;12.88;;;;;;;11.74;75.92;102554.34;5061379;28;20440;-79
2022/05/06 07:48:10;;;;;;;23.30;12.55;;;;;;;11.69;76.00;102550.91;5064341;28;20028;-79
2022/05/06 07:50:37;;;;;;;22.88;13.63;;;;;;;11.64;76.36;102556.09;5065332;28;20086;-80
2022/05/06 07:53:03;;;;;;;24.42;12.93;;;;;;;11.63;76.68;102551.75;5059551;28;20029;-79
2022/05/06 07:55:29;;;;;;;24.70;13.88;;;;;;;11.66;76.39;102556.97;5057599;28;20536;-79
2022/05/06 07:57:57;;;;;;;25.70;14.52;;;;;;;11.67;76.23;102558.69;5062794;28;20475;-78
2022/05/06 08:00:24;;;;;;;23.15;13.90;;;;;;;11.63;76.29;102566.53;5063762;28;20506;-80
2022/05/06 08:05:33;;;;;;;25.45;13.55;;;;;;;11.56;77.04;102570.91;5055570;28;20047;-77
2022/05/06 08:07:58;;;;;;;23.58;14.10;;;;;;;11.61;76.57;102561.34;5057674;28;20028;-77
2022/05/06 08:10:24;;;;;;;24.42;13.80;;;;;;;11.68;76.70;102559.59;5057294;28;20499;-79
2022/05/06 08:12:49;;;;;;;21.95;12.95;;;;;;;11.77;77.38;102559.56;5055921;28;20032;-80
2022/05/06 08:15:14;;;;;;;23.45;13.93;;;;;;;11.90;77.27;102560.38;5055143;28;20074;-79
2022/05/06 08:17:40;;;;;;;22.50;13.07;;;;;;;11.98;75.87;102569.06;5055714;28;20032;-77
2022/05/06 08:20:08;;;;;;;20.23;12.93;;;;;;;12.03;76.02;102563.84;5054877;28;20054;-80
2022/05/06 08:22:33;;;;;;;23.10;13.57;;;;;;;12.07;75.64;102569.91;5056060;28;20074;-77
2022/05/06 08:24:58;;;;;;;24.10;14.63;;;;;;;12.11;74.94;102574.25;5055808;28;20069;-78
2022/05/06 08:27:24;;;;;;;28.92;16.02;;;;;;;12.17;75.38;102569.00;5058839;28;20703;-77
2022/05/06 08:29:49;;;;;;;24.13;14.65;;;;;;;12.21;75.29;102568.09;5058266;28;20041;-77
2022/05/06 08:32:14;;;;;;;24.60;13.90;;;;;;;12.28;74.61;102564.59;5055457;28;20036;-78
2022/05/06 08:34:39;;;;;;;24.40;14.10;;;;;;;12.34;74.73;102565.44;5054858;28;20532;-78
2022/05/06 08:37:05;;;;;;;25.17;14.48;;;;;;;12.43;74.92;102557.56;5056338;28;20035;-77
2022/05/06 08:39:30;;;;;;;26.42;14.38;;;;;;;12.50;74.56;102558.38;5056657;28;20035;-77
2022/05/06 08:41:57;;;;;;;26.42;15.23;;;;;;;12.59;75.51;102553.09;5054218;28;20039;-77
2022/05/06 08:52:40;;;;;;;26.38;15.63;;;;;;;12.99;73.96;102538.84;5058627;28;20051;-79
2022/05/06 08:55:06;;;;;;;25.13;14.70;;;;;;;13.04;73.61;102542.31;5066519;28;20032;-80
2022/05/06 08:57:32;;;;;;;29.02;15.40;;;;;;;13.06;73.37;102543.16;5063911;28;20040;-80
2022/05/06 08:59:58;;;;;;;26.85;15.95;;;;;;;13.05;73.14;102541.44;5061522;28;20040;-80
2022/05/06 09:02:23;;;;;;;25.13;14.63;;;;;;;13.09;73.49;102539.66;5063231;28;20032;-80
2022/05/06 09:04:48;;;;;;;26.75;15.35;;;;;;;13.11;73.60;102541.38;5066735;28;20144;-80
2022/05/06 09:07:21;;;;;;;27.00;15.85;;;;;;;13.15;74.06;102529.16;5063908;28;20112;-80
2022/05/06 09:10:05;;;;;;;27.77;16.65;;;;;;;13.20;74.11;102533.44;5065443;28;20623;-80
2022/05/06 09:12:42;;;;;;;25.40;15.48;;;;;;;13.20;74.37;102538.69;5064546;28;20281;-79
2022/05/06 09:18:00;;;;;;;;;;;;;;;13.29;73.80;102532.50;5065443;28;20193;-80
2022/05/06 09:20:27;;;;;;;25.98;14.98;;;;;;;13.31;73.81;102529.88;5063086;28;20007;-80
2022/05/06 09:22:54;;;;;;;26.23;16.15;;;;;;;13.35;74.19;102526.34;5062317;28;20502;-80
2022/05/06 09:25:54;;;;;;;26.65;16.25;;;;;;;13.39;73.13;102527.19;5064404;28;20032;-80
2022/05/06 09:28:23;;;;;;;27.52;16.15;;;;;;;13.42;73.48;102528.03;5065392;28;20036;-80
2022/05/06 09:31:05;;;;;;;25.48;15.65;;;;;;;13.46;72.46;102531.47;5063361;28;20033;-80
2022/05/06 09:33:32;;;;;;;25.30;15.05;;;;;;;13.48;73.46;102530.59;5061940;28;20063;-80
2022/05/06 09:35:58;;;;;;;25.30;15.63;;;;;;;13.48;72.36;102528.00;5063397;28;20029;-80
2022/05/06 09:38:29;;;;;;;25.35;15.30;;;;;;;13.46;72.83;102519.28;5064161;28;20035;-80
2022/05/06 09:40:55;;;;;;;25.35;15.80;;;;;;;13.46;71.75;102521.03;5064387;28;20032;-80
2022/05/06 09:43:20;;;;;;;24.27;15.07;;;;;;;13.48;72.69;102516.66;5060835;28;20032;-80
2022/05/06 09:45:46;;;;;;;27.90;16.17;;;;;;;13.54;72.77;102513.97;5065083;28;20040;-80
2022/05/06 09:48:13;;;;;;;25.98;16.05;;;;;;;13.62;72.25;102519.13;5065365;28;20024;-80
2022/05/06 09:50:38;;;;;;;22.45;14.20;;;;;;;13.68;71.48;102518.19;5061171;28;20059;-80
2022/05/06 09:53:07;;;;;;;21.65;13.32;;;;;;;13.69;70.38;102517.28;5064538;28;20121;-80
2022/05/06 09:55:35;;;;;;;22.83;12.90;;;;;;;13.71;71.40;102515.53;5063360;28;20028;-78
2022/05/06 09:58:00;;;;;;;21.45;12.48;;;;;;;13.73;70.39;102506.78;5062973;28;20025;-79
2022/05/06 10:00:27;;;;;;;22.48;13.70;;;;;;;13.75;71.11;102510.25;5064743;28;20078;-80
2022/05/06 10:02:53;;;;;;;23.63;14.75;;;;;;;13.78;72.14;102507.59;5063828;28;20052;-80
2022/05/06 10:05:18;;;;;;;22.90;14.18;;;;;;;13.84;71.28;102508.38;5063783;28;20055;-80
2022/05/06 10:07:44;;;;;;;28.65;14.88;;;;;;;13.91;71.44;102516.16;5062036;28;20032;-80
2022/05/06 10:10:15;;;;;;;24.98;14.88;;;;;;;13.97;70.76;102507.34;5065987;28;20048;-80
2022/05/06 10:12:47;;;;;;;23.65;14.35;;;;;;;14.00;70.59;102504.69;5064788;28;20036;-80
2022/05/06 10:15:13;;;;;;;23.58;14.15;;;;;;;14.07;70.94;102506.34;5062901;28;20025;-80
2022/05/06 10:17:59;;;;;;;24.02;13.70;;;;;;;14.11;69.92;102508.03;5064002;28;20056;-80
2022/05/06 10:20:34;;;;;;;22.60;13.88;;;;;;;14.11;69.39;102507.16;5063048;28;20028;-80
2022/05/06 10:23:04;;;;;;;22.08;14.07;;;;;;;14.11;69.34;102497.56;5067161;28;20031;-80
2022/05/06 10:25:41;;;;;;;20.77;12.05;;;;;;;14.20;69.61;102495.69;5065864;28;20105;-80
2022/05/06 10:34:14;;;;;;;22.73;12.82;;;;;;;14.46;69.96;102490.06;5064181;28;20040;-80
2022/05/06 10:36:42;;;;;;;19.30;10.95;;;;;;;14.55;68.92;102491.66;5064263;28;20099;-80
2022/05/06 10:39:33;;;;;;;17.70;10.85;;;;;;;14.64;68.15;102494.16;5063119;28;20484;-80
2022/05/06 10:42:08;;;;;;;21.60;11.88;;;;;;;14.69;66.71;102488.88;5063134;28;20036;-79
2022/05/06 10:44:40;;;;;;;21.33;11.98;;;;;;;14.69;67.41;102487.09;5063169;28;20043;-80
2022/05/06 10:47:12;;;;;;;19.50;12.00;;;;;;;14.71;67.61;102482.69;5063323;28;20070;-79
2022/05/06 10:49:40;;;;;;;18.10;11.55;;;;;;;14.75;66.02;102480.03;5065359;28;20556;-81
2022/05/06 10:52:14;;;;;;;16.95;9.48;;;;;;;14.81;65.31;102482.56;5064955;28;20048;-79
2022/05/06 10:54:44;;;;;;;15.82;9.98;;;;;;;14.86;65.04;102480.69;5061051;28;20137;-79
2022/05/06 10:57:10;;;;;;;17.23;10.32;;;;;;;14.90;64.85;102471.06;5061205;28;20481;-80
2022/05/06 10:59:51;;;;;;;16.45;10.52;;;;;;;14.94;65.52;102472.75;5062169;28;20032;-79
2022/05/06 11:02:17;;;;;;;17.52;10.38;;;;;;;14.98;65.51;102469.16;5062769;28;20048;-79
2022/05/06 11:04:53;;;;;;;17.73;9.18;;;;;;;15.04;64.78;102469.03;5058980;28;20085;-79
2022/05/06 11:07:19;;;;;;;17.30;10.85;;;;;;;15.10;63.72;102461.06;5058574;28;20421;-79
2022/05/06 11:09:45;;;;;;;17.33;10.70;;;;;;;15.17;64.15;102464.44;5060417;28;20497;-79
2022/05/06 11:12:11;;;;;;;17.52;10.93;;;;;;;15.22;63.91;102462.56;5060232;28;20025;-80
2022/05/06 11:14:36;;;;;;;15.50;9.88;;;;;;;15.28;63.42;102462.47;5061548;28;20032;-79
2022/05/06 11:17:22;;;;;;;16.75;10.90;;;;;;;15.34;64.26;102458.84;5057744;28;20058;-80
2022/05/06 11:19:47;;;;;;;16.77;7.65;;;;;;;15.38;61.63;102460.53;5057383;28;20063;-79
2022/05/06 11:22:13;;;;;;;12.05;7.68;;;;;;;15.44;61.55;102452.56;5060373;28;20075;-79
2022/05/06 11:24:38;;;;;;;12.45;8.00;;;;;;;15.53;61.88;102451.50;5063359;28;20036;-79
2022/05/06 11:27:13;;;;;;;13.15;8.52;;;;;;;15.60;62.10;102445.22;5064333;28;20036;-80
2022/05/06 11:29:55;;;;;;;16.20;8.13;;;;;;;15.70;62.05;102447.66;5061945;28;20832;-79
2022/05/06 11:32:21;;;;;;;11.50;7.63;;;;;;;15.75;59.94;102441.41;5058606;28;20087;-78
2022/05/06 11:34:51;;;;;;;11.85;7.07;;;;;;;15.79;60.37;102436.94;5064232;28;20103;-79
2022/05/06 11:37:25;;;;;;;10.57;6.40;;;;;;;15.86;60.13;102437.69;5061417;28;20119;-79
2022/05/06 11:39:51;;;;;;;15.60;6.25;;;;;;;15.92;58.67;102438.41;5053440;28;20086;-79
2022/05/06 11:42:23;;;;;;;11.95;6.70;;;;;;;16.01;58.80;102441.75;5057589;28;20040;-78
2022/05/06 11:47:40;;;;;;;11.75;7.22;;;;;;;16.13;58.15;102444.06;5054999;28;20039;-78
2022/05/06 11:50:06;;;;;;;11.35;7.28;;;;;;;16.21;58.54;102439.53;5058438;28;20036;-78
2022/05/06 11:52:33;;;;;;;12.02;7.35;;;;;;;16.27;57.50;102432.38;5057875;28;20029;-79
2022/05/06 11:54:59;;;;;;;12.88;6.63;;;;;;;16.31;57.62;102431.41;5057086;28;20726;-77
2022/05/06 11:57:24;;;;;;;9.15;5.90;;;;;;;16.35;55.43;102422.56;5057213;28;20036;-79